Time;durP1;ratioP1;P1;durP2;ratioP2;P2;SDS_P1;SDS_P2;PMS_P1;PMS_P2;Temp;Humidity;BMP_temperature;BMP_pressure;BME280_temperature;BME280_humidity;BME280_pressure;Samples;Min_cycle;Max_cycle;Signal;HPM_P1;HPM_P2
2022/07/21 00:01:30;;;;;;;2.90;1.50;;;;;;;17.95;69.86;101230.22;5074514;28;20113;-69
2022/07/21 00:03:56;;;;;;;2.35;1.58;;;;;;;18.00;69.91;101243.09;5074682;28;20040;-70
2022/07/21 00:06:21;;;;;;;1.80;1.38;;;;;;;18.09;69.93;101247.25;5074598;28;20044;-70
2022/07/21 00:08:47;;;;;;;1.90;1.50;;;;;;;18.12;69.76;101246.84;5074376;28;20036;-69
2022/07/21 00:11:12;;;;;;;4.85;2.22;;;;;;;18.09;69.82;101241.88;5093011;28;20036;-67
2022/07/21 00:13:38;;;;;;;1.50;1.38;;;;;;;18.08;70.14;101245.59;5092869;28;20028;-68
2022/07/21 00:16:04;;;;;;;5.10;1.70;;;;;;;18.03;70.34;101250.75;5092210;28;20088;-67
2022/07/21 00:18:30;;;;;;;3.90;1.90;;;;;;;18.05;70.33;101250.56;5057727;28;20088;-70
2022/07/21 00:20:56;;;;;;;2.10;1.90;;;;;;;18.03;70.63;101247.25;5073745;28;20032;-69
2022/07/21 00:23:26;;;;;;;2.50;2.00;;;;;;;18.07;70.55;101251.19;5092614;28;20052;-68
2022/07/21 00:25:53;;;;;;;2.30;2.20;;;;;;;18.02;70.91;101250.97;5058135;28;20069;-69
2022/07/21 00:28:20;;;;;;;2.35;2.08;;;;;;;18.03;71.04;101264.25;5092175;28;20036;-69
2022/07/21 00:30:47;;;;;;;1.83;1.23;;;;;;;18.06;70.78;101258.44;5073422;28;20051;-70
2022/07/21 00:33:15;;;;;;;3.10;2.15;;;;;;;17.96;70.95;101247.22;5073480;28;20043;-69
2022/07/21 00:35:40;;;;;;;5.53;2.33;;;;;;;17.86;71.12;101231.38;5056157;28;20122;-68
2022/07/21 00:38:06;;;;;;;4.35;1.80;;;;;;;18.00;71.34;101264.66;5091394;28;20160;-69
2022/07/21 00:40:32;;;;;;;2.03;1.27;;;;;;;17.96;71.34;101258.00;5092009;28;20063;-70
2022/07/21 00:42:58;;;;;;;5.10;1.73;;;;;;;17.98;71.73;101272.09;5072992;28;20036;-68
2022/07/21 00:45:24;;;;;;;5.40;2.28;;;;;;;17.96;71.84;101252.59;5056674;28;20028;-70
2022/07/21 00:47:49;;;;;;;1.73;1.63;;;;;;;17.98;71.36;101255.94;5091755;28;20377;-68
2022/07/21 00:50:17;;;;;;;2.30;2.10;;;;;;;18.03;71.89;101269.63;5091607;28;20036;-67
2022/07/21 00:52:43;;;;;;;2.72;1.92;;;;;;;18.00;71.97;101270.03;5091776;28;20027;-70
2022/07/21 00:55:13;;;;;;;4.22;3.35;;;;;;;18.00;72.10;101272.72;5091767;28;20079;-70
2022/07/21 00:57:38;;;;;;;2.17;2.05;;;;;;;17.92;72.24;101279.09;5073509;28;20379;-69
2022/07/21 01:00:08;;;;;;;2.25;1.55;;;;;;;17.84;72.38;101281.13;5090956;28;20085;-70
2022/07/21 01:02:36;;;;;;;1.90;1.70;;;;;;;17.49;72.95;101229.88;5091002;28;20429;-70
2022/07/21 01:05:12;;;;;;;1.52;1.40;;;;;;;17.75;72.82;101271.53;5090668;28;20119;-69
2022/07/21 01:07:39;;;;;;;2.30;1.85;;;;;;;17.70;73.28;101274.00;5058058;28;20058;-70
2022/07/21 01:10:06;;;;;;;2.08;1.88;;;;;;;17.73;73.16;101278.97;5091274;28;20032;-69
2022/07/21 01:12:31;;;;;;;2.42;1.77;;;;;;;17.68;73.40;101267.97;5073761;28;20028;-70
2022/07/21 01:14:57;;;;;;;3.80;2.03;;;;;;;17.69;73.32;101278.53;5073521;28;20566;-71
2022/07/21 01:17:24;;;;;;;1.95;1.77;;;;;;;17.75;73.55;101282.31;5072925;28;20407;-70
2022/07/21 01:19:51;;;;;;;2.58;2.10;;;;;;;17.74;73.35;101273.41;5091144;28;20075;-68
2022/07/21 01:22:16;;;;;;;2.15;1.95;;;;;;;17.76;73.36;101276.72;5073273;28;20605;-67
2022/07/21 01:24:42;;;;;;;2.55;2.35;;;;;;;17.64;73.88;101256.72;5091113;28;20138;-68
2022/07/21 01:27:08;;;;;;;1.80;1.70;;;;;;;17.74;73.86;101275.25;5091400;28;20028;-69
2022/07/21 01:29:33;;;;;;;5.78;2.97;;;;;;;17.72;73.66;101283.53;5094606;28;20039;-70
2022/07/21 01:32:03;;;;;;;2.55;2.13;;;;;;;17.71;74.02;101276.47;5028130;28;1398349;-70
2022/07/21 01:34:29;;;;;;;2.45;1.90;;;;;;;17.68;73.77;101271.50;5096184;28;20044;-67
2022/07/21 01:36:55;;;;;;;4.10;3.00;;;;;;;17.71;73.83;101275.66;5096118;28;20540;-67
2022/07/21 01:42:04;;;;;;;2.97;2.35;;;;;;;17.68;74.45;101265.28;5098494;28;20043;-70
2022/07/21 01:44:29;;;;;;;2.28;2.08;;;;;;;17.65;74.59;101261.91;5096930;28;20048;-71
2022/07/21 01:46:55;;;;;;;3.15;2.78;;;;;;;17.70;74.53;101265.91;5081572;28;20119;-70
2022/07/21 01:49:21;;;;;;;3.28;2.42;;;;;;;17.68;74.48;101266.09;5102197;28;20036;-71
2022/07/21 01:51:48;;;;;;;5.43;2.38;;;;;;;17.68;75.10;101266.09;5103859;28;20040;-71
2022/07/21 01:54:14;;;;;;;2.63;2.17;;;;;;;17.68;74.67;101282.28;5096168;28;20034;-71
2022/07/21 01:56:39;;;;;;;2.85;2.55;;;;;;;17.67;74.96;101274.34;5096099;28;20028;-70
2022/07/21 01:59:06;;;;;;;3.25;2.80;;;;;;;17.65;74.94;101278.06;5095330;28;20032;-70
2022/07/21 02:01:32;;;;;;;3.55;1.92;;;;;;;17.59;75.26;101273.44;5095786;28;20161;-69
2022/07/21 02:04:01;;;;;;;5.15;2.65;;;;;;;17.64;75.26;101273.72;5077452;28;20035;-69
2022/07/21 02:06:27;;;;;;;2.72;2.25;;;;;;;17.71;75.43;101275.66;5095416;28;20043;-69
2022/07/21 02:08:52;;;;;;;3.55;2.28;;;;;;;17.73;75.61;101287.06;5095378;28;20398;-69
2022/07/21 02:11:18;;;;;;;3.65;2.40;;;;;;;17.75;75.09;101288.53;5095487;28;20038;-69
2022/07/21 02:13:45;;;;;;;2.95;2.65;;;;;;;17.74;75.76;101286.03;5095008;28;20032;-69
2022/07/21 02:16:11;;;;;;;4.05;2.80;;;;;;;17.68;75.98;101284.13;5095255;28;20046;-70
2022/07/21 02:18:37;;;;;;;2.40;2.15;;;;;;;17.72;75.81;101288.94;5095106;28;20048;-69
2022/07/21 02:21:04;;;;;;;7.32;3.42;;;;;;;17.73;75.99;101289.75;5095123;28;20089;-68
2022/07/21 02:23:30;;;;;;;2.88;2.53;;;;;;;17.78;76.05;101288.13;5095130;28;20065;-69
2022/07/21 02:25:58;;;;;;;3.08;2.78;;;;;;;17.81;75.71;101286.91;5095227;28;20437;-70
2022/07/21 02:28:24;;;;;;;6.65;3.05;;;;;;;17.85;75.87;101288.16;5096049;28;20570;-68
2022/07/21 02:30:51;;;;;;;4.07;3.45;;;;;;;17.87;76.20;101291.50;5095348;28;20535;-71
2022/07/21 02:33:17;;;;;;;5.07;2.53;;;;;;;17.79;76.08;101267.41;5097085;28;20083;-67
2022/07/21 02:35:43;;;;;;;3.63;2.70;;;;;;;17.93;76.24;101282.66;5097665;28;20787;-68
2022/07/21 02:38:09;;;;;;;3.67;3.20;;;;;;;17.88;75.96;101274.28;5096806;28;20064;-68
2022/07/21 02:40:36;;;;;;;3.55;3.00;;;;;;;18.01;75.82;101293.25;5099064;28;20030;-65
2022/07/21 02:43:02;;;;;;;4.47;2.85;;;;;;;18.03;75.86;101288.50;5083726;28;20032;-70
2022/07/21 02:45:28;;;;;;;6.03;3.60;;;;;;;18.04;75.71;101283.94;5095577;28;20042;-68
2022/07/21 02:48:00;;;;;;;3.20;3.00;;;;;;;18.08;75.70;101299.50;5095340;28;20126;-69
2022/07/21 02:50:29;;;;;;;3.67;3.20;;;;;;;18.07;76.14;101295.16;5094470;28;20487;-69
2022/07/21 02:52:57;;;;;;;3.45;2.83;;;;;;;17.93;76.07;101263.78;5095042;28;20077;-67
2022/07/21 02:55:23;;;;;;;5.53;3.15;;;;;;;18.15;76.22;101300.38;5080668;28;20024;-67
2022/07/21 02:57:49;;;;;;;3.97;3.67;;;;;;;18.13;75.92;101282.72;5098076;28;20028;-70
2022/07/21 03:00:15;;;;;;;4.45;3.22;;;;;;;18.16;76.21;101290.41;5101966;28;20100;-68
2022/07/21 03:02:41;;;;;;;6.60;4.50;;;;;;;18.23;76.17;101304.78;5094463;28;20032;-69
2022/07/21 03:05:07;;;;;;;8.57;4.45;;;;;;;18.39;75.36;101300.91;5094068;28;20047;-66
2022/07/21 03:07:32;;;;;;;10.45;6.43;;;;;;;19.45;72.04;101310.97;5094216;28;20032;-70
2022/07/21 03:09:58;;;;;;;8.38;4.55;;;;;;;20.77;67.40;101306.31;5094000;28;20479;-70
2022/07/21 03:12:23;;;;;;;8.23;3.90;;;;;;;22.06;62.81;101311.19;5094447;28;20157;-71
2022/07/21 03:14:48;;;;;;;9.45;4.03;;;;;;;22.97;59.41;101305.66;5094234;28;20403;-67
2022/07/21 03:17:14;;;;;;;6.20;3.50;;;;;;;23.46;57.36;101303.66;5093798;28;20032;-71
2022/07/21 03:19:39;;;;;;;5.22;3.17;;;;;;;24.14;54.74;101300.34;5094010;28;20036;-70
2022/07/21 03:22:05;;;;;;;5.80;3.15;;;;;;;24.45;53.08;101303.75;5093521;28;20036;-71
2022/07/21 03:24:31;;;;;;;6.95;4.03;;;;;;;24.83;52.17;101308.56;5093330;28;20043;-68
2022/07/21 03:26:57;;;;;;;3.55;2.50;;;;;;;25.21;51.30;101316.97;5075757;28;20047;-71
2022/07/21 03:29:23;;;;;;;4.63;3.10;;;;;;;25.28;50.75;101314.06;5075431;28;20412;-69
2022/07/21 03:31:51;;;;;;;3.63;2.90;;;;;;;25.66;50.06;101315.22;5058224;28;20079;-70
2022/07/21 03:34:17;;;;;;;5.18;3.83;;;;;;;26.02;48.63;101303.78;5093778;28;20040;-70
2022/07/21 03:36:42;;;;;;;3.47;2.92;;;;;;;25.64;49.39;101302.66;5093529;28;20043;-69
2022/07/21 03:39:08;;;;;;;4.03;3.42;;;;;;;24.89;51.26;101297.56;5093325;28;20047;-69
2022/07/21 03:41:33;;;;;;;3.15;2.85;;;;;;;23.87;54.20;101315.53;5093913;28;20036;-70
2022/07/21 03:43:59;;;;;;;5.00;3.10;;;;;;;22.46;58.36;101309.66;5093564;28;20474;-71
2022/07/21 03:46:24;;;;;;;4.07;3.13;;;;;;;22.06;60.56;101319.31;5093568;28;20134;-71
2022/07/21 03:48:50;;;;;;;5.90;3.00;;;;;;;21.69;61.60;101305.69;5093361;28;20505;-70
2022/07/21 03:51:15;;;;;;;3.22;2.72;;;;;;;21.36;63.70;101311.34;5092167;28;20036;-72
2022/07/21 03:53:41;;;;;;;2.85;2.55;;;;;;;21.21;64.48;101317.06;5074885;28;20503;-70
2022/07/21 03:56:07;;;;;;;3.40;2.97;;;;;;;21.02;65.35;101320.75;5093993;28;20070;-70
2022/07/21 03:58:33;;;;;;;6.50;3.70;;;;;;;20.69;66.82;101310.09;5092770;28;20069;-70
2022/07/21 04:00:58;;;;;;;5.25;3.67;;;;;;;20.64;67.28;101329.69;5074789;28;20035;-68
2022/07/21 04:03:24;;;;;;;3.78;3.47;;;;;;;21.70;63.65;101329.03;5092544;28;20100;-71
2022/07/21 04:05:50;;;;;;;3.30;2.72;;;;;;;22.79;59.34;101332.84;5057586;28;20034;-67
2022/07/21 04:08:16;;;;;;;4.90;3.88;;;;;;;23.59;56.21;101338.81;5074434;28;20032;-68
2022/07/21 04:10:43;;;;;;;4.22;3.78;;;;;;;24.16;54.90;101332.78;5093208;28;20415;-69
2022/07/21 04:13:11;;;;;;;3.70;3.40;;;;;;;24.73;53.14;101330.19;5058053;28;20036;-67
2022/07/21 04:15:38;;;;;;;4.45;3.53;;;;;;;24.57;52.94;101334.47;5092921;28;20047;-69
2022/07/21 04:18:04;;;;;;;3.50;3.20;;;;;;;24.46;53.58;101343.53;5093305;28;20036;-67
2022/07/21 04:20:30;;;;;;;5.93;3.75;;;;;;;24.99;52.38;101349.53;5095162;28;20034;-69
2022/07/21 04:22:59;;;;;;;5.95;4.03;;;;;;;25.11;51.84;101344.00;5094282;28;20032;-68
2022/07/21 04:25:25;;;;;;;5.22;3.60;;;;;;;25.12;51.41;101337.50;5094452;28;20039;-68
2022/07/21 04:27:51;;;;;;;6.13;3.53;;;;;;;24.98;51.93;101347.88;5076804;28;20040;-70
2022/07/21 04:30:22;;;;;;;8.13;4.00;;;;;;;24.65;52.94;101347.75;5094600;28;20047;-70
2022/07/21 04:32:51;;;;;;;4.72;3.88;;;;;;;24.64;53.12;101346.09;5094891;28;20050;-69
2022/07/21 04:35:17;;;;;;;7.57;3.67;;;;;;;24.85;52.69;101337.22;5093537;28;20044;-68
2022/07/21 04:37:46;;;;;;;3.50;3.10;;;;;;;25.35;51.63;101342.00;5093866;28;20047;-68
2022/07/21 04:40:13;;;;;;;5.28;4.07;;;;;;;25.47;51.15;101344.66;5062592;28;20039;-70
2022/07/21 04:42:39;;;;;;;5.88;3.63;;;;;;;25.13;52.15;101341.88;5096467;28;20036;-69
2022/07/21 04:45:06;;;;;;;5.38;3.92;;;;;;;24.88;52.80;101336.75;5096377;28;20487;-68
2022/07/21 04:47:32;;;;;;;5.15;4.22;;;;;;;25.09;52.63;101342.59;5061913;28;20028;-71
2022/07/21 04:49:58;;;;;;;4.82;4.03;;;;;;;25.41;51.63;101343.72;5095258;28;20040;-69
2022/07/21 04:52:23;;;;;;;4.70;3.53;;;;;;;25.43;51.23;101338.84;5094476;28;20046;-69
2022/07/21 04:54:51;;;;;;;6.68;3.72;;;;;;;25.38;51.59;101341.50;5094021;28;20046;-70
2022/07/21 04:57:17;;;;;;;6.88;3.92;;;;;;;25.42;51.68;101341.81;5078260;28;20051;-66
2022/07/21 04:59:42;;;;;;;4.57;3.60;;;;;;;25.53;51.53;101333.56;5094484;28;20032;-70
2022/07/21 05:02:08;;;;;;;5.22;3.92;;;;;;;25.51;51.51;101346.63;5095538;28;20035;-72
2022/07/21 05:04:33;;;;;;;5.75;3.90;;;;;;;25.20;52.16;101333.56;5077243;28;20042;-69
2022/07/21 05:06:59;;;;;;;4.55;4.13;;;;;;;25.14;52.35;101348.16;5096527;28;20039;-69
2022/07/21 05:09:24;;;;;;;6.00;4.38;;;;;;;24.58;53.97;101337.00;5077765;28;20054;-69
2022/07/21 05:11:50;;;;;;;5.93;4.55;;;;;;;24.50;54.47;101350.13;5093938;28;20100;-71
2022/07/21 05:14:15;;;;;;;7.93;4.35;;;;;;;24.42;54.64;101342.34;5092403;28;20085;-71
2022/07/21 05:16:42;;;;;;;5.05;4.35;;;;;;;24.43;55.00;101354.91;5092492;28;20036;-71
2022/07/21 05:19:07;;;;;;;5.25;4.22;;;;;;;24.17;55.79;101346.13;5091932;28;20043;-69
2022/07/21 05:21:33;;;;;;;6.32;3.92;;;;;;;23.93;56.35;101350.75;5092314;28;20444;-69
2022/07/21 05:23:58;;;;;;;4.63;3.75;;;;;;;23.49;57.85;101350.22;5073733;28;20483;-69
2022/07/21 05:26:24;;;;;;;5.45;4.43;;;;;;;22.62;61.08;101327.22;5092519;28;20036;-69
2022/07/21 05:28:51;;;;;;;7.18;5.20;;;;;;;22.04;64.02;101335.00;5092063;28;20051;-71
2022/07/21 05:31:18;;;;;;;5.05;4.53;;;;;;;21.67;65.96;101345.72;5091751;28;20060;-68
2022/07/21 05:33:45;;;;;;;5.15;4.65;;;;;;;21.36;67.17;101351.16;5091953;28;20486;-69
2022/07/21 05:36:11;;;;;;;6.43;5.03;;;;;;;21.22;68.00;101347.69;5092488;28;20048;-69
2022/07/21 05:38:36;;;;;;;6.18;5.25;;;;;;;21.17;68.49;101336.69;5092874;28;20094;-69
2022/07/21 05:41:05;;;;;;;6.22;5.32;;;;;;;21.27;68.03;101356.03;5093693;28;20028;-68
2022/07/21 05:43:31;;;;;;;6.07;5.32;;;;;;;21.27;68.49;101354.16;5092272;28;20093;-69
2022/07/21 05:45:57;;;;;;;10.32;6.40;;;;;;;21.29;68.30;101349.34;5074358;28;20525;-69
2022/07/21 05:48:23;;;;;;;8.93;5.45;;;;;;;21.39;68.23;101356.16;5093275;28;20063;-72
2022/07/21 05:50:48;;;;;;;6.68;5.38;;;;;;;21.31;68.21;101352.66;5093103;28;20063;-67
2022/07/21 05:53:14;;;;;;;7.68;5.10;;;;;;;21.37;68.04;101364.50;5093566;28;20372;-67
2022/07/21 05:55:39;;;;;;;9.95;5.50;;;;;;;21.37;68.24;101352.81;5094014;28;20031;-70
2022/07/21 05:58:05;;;;;;;5.85;5.00;;;;;;;21.38;68.57;101357.19;5093141;28;20028;-68
2022/07/21 06:00:30;;;;;;;5.57;4.68;;;;;;;21.44;68.60;101369.91;5074809;28;20407;-69
2022/07/21 06:02:56;;;;;;;6.82;5.85;;;;;;;21.49;68.52;101362.75;5093394;28;20479;-67
2022/07/21 06:05:22;;;;;;;6.60;4.88;;;;;;;21.59;68.19;101370.38;5092146;28;20123;-69
2022/07/21 06:07:48;;;;;;;8.57;5.90;;;;;;;21.57;68.11;101367.06;5091874;28;20491;-70
2022/07/21 06:10:14;;;;;;;7.38;5.43;;;;;;;21.57;68.21;101383.34;5092746;28;20044;-68
2022/07/21 06:12:40;;;;;;;6.90;5.60;;;;;;;21.55;67.79;101377.31;5092949;28;20040;-70
2022/07/21 06:15:06;;;;;;;6.10;5.50;;;;;;;21.54;68.36;101381.06;5094679;28;20040;-66
2022/07/21 06:17:42;;;;;;;7.20;5.63;;;;;;;21.58;67.92;101390.41;5095300;28;20027;-67
2022/07/21 06:20:08;;;;;;;8.65;5.53;;;;;;;21.54;67.89;101383.78;5101677;28;20044;-72
2022/07/21 06:22:34;;;;;;;10.88;5.45;;;;;;;21.55;68.24;101380.00;5098870;28;20096;-73
2022/07/21 06:25:00;;;;;;;10.82;6.25;;;;;;;21.59;68.56;101386.66;5096483;28;20107;-68
2022/07/21 06:27:26;;;;;;;8.30;6.00;;;;;;;21.68;68.54;101384.50;5051637;28;20501;-68
2022/07/21 06:29:52;;;;;;;10.95;5.82;;;;;;;21.67;67.86;101383.66;5099529;28;20096;-67
2022/07/21 06:32:18;;;;;;;7.95;6.28;;;;;;;21.66;68.34;101376.56;5098837;28;20143;-70
2022/07/21 06:34:44;;;;;;;6.10;4.90;;;;;;;21.74;68.44;101387.16;5097183;28;20046;-70
2022/07/21 06:37:10;;;;;;;8.25;5.90;;;;;;;21.76;68.56;101376.94;5084954;28;20067;-70
2022/07/21 06:39:39;;;;;;;8.98;5.47;;;;;;;21.83;68.59;101379.59;5105280;28;20028;-74
2022/07/21 06:42:05;;;;;;;8.05;5.53;;;;;;;21.90;68.00;101389.31;5068053;28;20042;-71
2022/07/21 06:44:31;;;;;;;10.27;6.22;;;;;;;21.91;67.78;101390.13;5097828;28;20063;-69
2022/07/21 06:46:57;;;;;;;6.93;6.15;;;;;;;21.98;67.46;101395.53;5078845;28;20039;-70
2022/07/21 06:49:23;;;;;;;9.02;6.00;;;;;;;21.97;67.96;101400.09;5096730;28;20041;-69
2022/07/21 06:51:48;;;;;;;8.52;6.07;;;;;;;22.00;67.50;101396.13;5098446;28;20032;-70
2022/07/21 06:54:14;;;;;;;6.03;5.43;;;;;;;22.03;67.37;101392.97;5099508;28;20452;-69
2022/07/21 06:56:39;;;;;;;8.52;6.47;;;;;;;22.11;68.02;101390.00;5105853;28;20570;-70
2022/07/21 06:59:05;;;;;;;8.27;6.40;;;;;;;22.11;67.35;101390.00;5104983;28;20035;-72
2022/07/21 07:01:30;;;;;;;7.15;5.63;;;;;;;22.19;67.41;101398.66;5098789;28;20028;-76
2022/07/21 07:03:56;;;;;;;10.35;6.28;;;;;;;22.23;67.01;101401.75;5079414;28;20035;-68
2022/07/21 07:06:23;;;;;;;14.07;6.60;;;;;;;22.22;67.37;101398.22;5082653;28;20410;-70
2022/07/21 07:08:48;;;;;;;8.70;6.22;;;;;;;22.29;67.32;101409.03;5083250;28;20032;-74
2022/07/21 07:11:14;;;;;;;13.52;7.05;;;;;;;22.31;66.93;101396.06;5082200;28;20095;-70
2022/07/21 07:13:40;;;;;;;13.82;6.82;;;;;;;22.28;67.59;101395.69;5079878;28;20043;-66
2022/07/21 07:16:05;;;;;;;11.60;6.60;;;;;;;22.36;67.28;101408.94;5065114;28;20536;-70
2022/07/21 07:18:31;;;;;;;7.57;6.72;;;;;;;22.37;67.08;101399.75;5087259;28;20047;-70
2022/07/21 07:20:57;;;;;;;8.45;6.25;;;;;;;22.39;66.34;101398.47;5100549;28;20415;-69
2022/07/21 07:23:23;;;;;;;10.13;6.80;;;;;;;22.35;66.64;101386.41;5100670;28;20042;-74
2022/07/21 07:25:50;;;;;;;12.30;7.03;;;;;;;22.46;66.81;101392.97;5078765;28;20036;-72
2022/07/21 07:28:16;;;;;;;11.75;7.57;;;;;;;22.51;66.93;101396.66;5100044;28;20038;-74
2022/07/21 07:30:48;;;;;;;11.57;7.50;;;;;;;22.59;66.28;101411.84;5100046;28;20556;-72
2022/07/21 07:33:14;;;;;;;18.27;9.63;;;;;;;22.57;65.97;101400.38;5080639;28;20066;-69
2022/07/21 07:35:39;;;;;;;9.45;6.93;;;;;;;22.60;66.50;101407.25;5093755;28;20067;-69
2022/07/21 07:38:05;;;;;;;11.85;8.40;;;;;;;22.63;66.99;101404.91;5097452;28;20024;-69
2022/07/21 07:40:31;;;;;;;14.60;7.88;;;;;;;22.68;66.71;101415.06;5093670;28;20402;-68
2022/07/21 07:43:00;;;;;;;15.77;10.65;;;;;;;22.72;65.98;101419.00;5100000;28;20535;-68
2022/07/21 07:45:25;;;;;;;13.98;8.05;;;;;;;22.77;66.16;101419.13;5098479;28;20035;-68
2022/07/21 07:47:51;;;;;;;15.60;8.23;;;;;;;22.80;66.09;101421.38;5096780;28;20032;-69
2022/07/21 07:50:17;;;;;;;13.38;7.15;;;;;;;22.78;66.01;101421.63;5099097;28;20384;-69
2022/07/21 07:52:44;;;;;;;13.73;6.68;;;;;;;22.64;65.46;101409.28;5100117;28;20473;-68
2022/07/21 07:55:10;;;;;;;14.73;7.60;;;;;;;22.72;66.14;101424.41;5098712;28;20519;-68
2022/07/21 07:57:40;;;;;;;13.93;7.70;;;;;;;22.79;65.98;101427.88;5102339;28;20044;-69
2022/07/21 08:00:10;;;;;;;15.98;8.20;;;;;;;22.84;66.44;101428.06;5100380;28;20032;-70
2022/07/21 08:02:35;;;;;;;12.52;7.97;;;;;;;22.95;66.06;101430.03;5097896;28;20082;-70
2022/07/21 08:05:02;;;;;;;12.40;8.05;;;;;;;22.97;65.53;101410.78;5099748;28;20043;-69
2022/07/21 08:07:29;;;;;;;16.25;7.50;;;;;;;22.97;64.80;101414.31;5099014;28;20470;-67
2022/07/21 08:09:57;;;;;;;9.45;6.40;;;;;;;23.07;64.86;101419.19;5082225;28;20067;-69
2022/07/21 08:12:23;;;;;;;8.57;6.57;;;;;;;23.13;65.17;101416.41;5083124;28;20058;-69
2022/07/21 08:14:51;;;;;;;12.05;7.13;;;;;;;23.18;65.23;101419.28;5100620;28;20123;-67
2022/07/21 08:17:16;;;;;;;;;;;;;;;23.26;64.81;101420.00;5099501;28;20039;-70
2022/07/21 08:19:43;;;;;;;16.25;7.68;;;;;;;23.22;65.10;101416.09;5103899;28;19916;-65
2022/07/21 08:22:12;;;;;;;12.68;6.75;;;;;;;23.25;64.39;101429.22;5082880;28;20039;-67
2022/07/21 08:24:38;;;;;;;16.98;7.00;;;;;;;23.31;64.31;101428.28;5096968;28;20036;-69
2022/07/21 08:27:03;;;;;;;9.93;7.40;;;;;;;23.37;64.70;101428.19;5098637;28;20530;-68
2022/07/21 08:29:29;;;;;;;11.52;6.70;;;;;;;23.49;64.12;101442.66;5078924;28;20134;-67
2022/07/21 08:31:56;;;;;;;9.63;6.68;;;;;;;23.47;63.56;101433.09;5096045;28;20513;-67
2022/07/21 08:34:24;;;;;;;8.98;6.20;;;;;;;23.47;63.42;101433.09;5079387;28;20044;-67
2022/07/21 08:36:51;;;;;;;7.78;5.55;;;;;;;23.52;63.32;101432.38;5097888;28;20059;-68
2022/07/21 08:39:16;;;;;;;9.82;6.60;;;;;;;23.51;63.50;101422.56;5063391;28;20130;-68
2022/07/21 08:41:42;;;;;;;12.68;7.15;;;;;;;23.59;62.48;101436.69;5101672;28;20093;-67
2022/07/21 08:44:10;;;;;;;10.90;7.32;;;;;;;23.67;62.44;101433.63;5097831;28;20399;-68
2022/07/21 08:46:40;;;;;;;14.93;7.75;;;;;;;23.68;62.72;101438.00;5107581;28;20036;-69
2022/07/21 08:49:08;;;;;;;12.00;7.18;;;;;;;23.68;61.14;101437.16;5109381;28;20438;-67
2022/07/21 08:51:34;;;;;;;9.45;6.53;;;;;;;23.67;61.38;101433.63;5109742;28;20047;-66
2022/07/21 08:54:04;;;;;;;8.23;6.30;;;;;;;23.73;61.48;101438.16;5110463;28;20040;-67
2022/07/21 08:56:29;;;;;;;10.27;6.32;;;;;;;23.86;60.95;101436.28;5092681;28;20039;-68
2022/07/21 08:58:55;;;;;;;9.15;5.95;;;;;;;23.94;61.22;101439.47;5106038;28;20043;-67
2022/07/21 09:01:24;;;;;;;13.85;7.78;;;;;;;23.97;61.17;101430.00;5101557;28;20119;-70
2022/07/21 09:03:51;;;;;;;8.82;5.80;;;;;;;23.89;59.34;101414.03;5098246;28;20047;-70
2022/07/21 09:06:17;;;;;;;10.18;6.20;;;;;;;24.01;60.03;101428.50;5080560;28;20039;-71
2022/07/21 09:08:51;;;;;;;13.15;6.47;;;;;;;24.06;59.42;101425.91;5099600;28;20039;-71
2022/07/21 09:11:19;;;;;;;6.85;5.65;;;;;;;24.12;58.78;101424.13;5097427;28;20039;-67
2022/07/21 09:13:51;;;;;;;9.75;5.93;;;;;;;24.21;58.82;101419.97;5080085;28;20124;-68
2022/07/21 09:16:45;;;;;;;9.45;5.20;;;;;;;24.28;58.62;101426.97;5097039;28;20040;-68
2022/07/21 09:19:20;;;;;;;11.35;5.47;;;;;;;24.28;57.87;101424.25;5070149;28;20192;-69
2022/07/21 09:21:52;;;;;;;7.28;5.32;;;;;;;24.29;57.60;101436.00;5083204;28;20042;-67
2022/07/21 09:24:26;;;;;;;9.00;6.10;;;;;;;24.31;58.12;101429.25;5079661;28;20136;-70
2022/07/21 09:27:06;;;;;;;9.25;5.85;;;;;;;24.34;57.75;101431.50;5096774;28;20032;-71
2022/07/21 09:29:56;;;;;;;11.68;6.40;;;;;;;24.45;58.24;101437.16;5094967;28;20123;-69
2022/07/21 09:32:29;;;;;;;9.23;6.00;;;;;;;24.44;56.32;101430.88;5095410;28;20052;-69
2022/07/21 09:35:01;;;;;;;8.68;5.72;;;;;;;24.46;55.79;101426.03;5094265;28;20040;-69
2022/07/21 09:37:29;;;;;;;7.55;6.22;;;;;;;24.52;55.78;101426.97;5094298;28;20119;-70
2022/07/21 09:40:07;;;;;;;8.23;5.50;;;;;;;24.55;55.68;101424.59;5095010;28;20127;-69
2022/07/21 09:42:35;;;;;;;7.75;5.50;;;;;;;24.68;55.50;101412.63;5079318;28;20119;-71
2022/07/21 09:45:18;;;;;;;7.55;5.65;;;;;;;24.79;55.49;101419.94;5079093;28;20594;-71
2022/07/21 09:47:45;;;;;;;10.40;5.40;;;;;;;24.83;54.99;101418.38;5095730;28;20032;-68
2022/07/21 09:50:14;;;;;;;7.47;6.00;;;;;;;24.87;54.50;101424.19;5080585;28;20036;-68
2022/07/21 09:52:41;;;;;;;7.00;5.15;;;;;;;24.89;53.86;101424.78;5100266;28;20333;-72
2022/07/21 09:55:10;;;;;;;9.95;6.28;;;;;;;24.88;53.42;101418.50;5082956;28;20040;-70
2022/07/21 09:57:37;;;;;;;7.68;6.22;;;;;;;24.94;53.02;101436.59;5081116;28;20032;-68
2022/07/21 10:00:12;;;;;;;6.45;5.60;;;;;;;24.95;52.32;101440.16;5081459;28;20044;-69
2022/07/21 10:02:38;;;;;;;5.90;4.97;;;;;;;25.01;53.14;101433.75;5099787;28;20028;-68
2022/07/21 10:05:09;;;;;;;9.38;5.55;;;;;;;25.00;53.57;101416.59;5099926;28;20077;-70
2022/07/21 10:07:41;;;;;;;6.72;6.03;;;;;;;25.08;52.86;101436.34;5081926;28;20028;-71
2022/07/21 10:10:07;;;;;;;12.32;6.78;;;;;;;25.05;52.47;101428.66;5098625;28;20036;-70
2022/07/21 10:12:35;;;;;;;6.65;5.78;;;;;;;25.13;51.86;101428.25;5081717;28;20032;-72
2022/07/21 10:15:01;;;;;;;7.85;5.15;;;;;;;25.16;51.69;101433.25;5079435;28;20024;-68
2022/07/21 10:17:27;;;;;;;7.78;5.57;;;;;;;25.17;50.80;101429.44;5098061;28;20406;-69
2022/07/21 10:20:07;;;;;;;7.75;6.05;;;;;;;25.24;51.68;101427.41;5098585;28;20051;-69
2022/07/21 10:22:57;;;;;;;8.02;5.70;;;;;;;25.28;51.24;101421.22;5098307;28;20056;-68
2022/07/21 10:25:24;;;;;;;8.10;6.00;;;;;;;25.35;50.33;101431.97;5097764;28;20104;-68
2022/07/21 10:28:08;;;;;;;8.85;6.03;;;;;;;25.36;50.61;101427.34;5096922;28;20111;-69
2022/07/21 10:30:48;;;;;;;7.40;5.53;;;;;;;25.31;50.70;101418.00;5097926;28;20056;-68
2022/07/21 10:33:18;;;;;;;6.50;5.65;;;;;;;25.43;49.69;101425.28;5080157;28;20510;-70
2022/07/21 10:35:49;;;;;;;7.40;6.07;;;;;;;25.48;49.73;101428.94;5080668;28;20534;-70
2022/07/21 10:38:27;;;;;;;11.27;7.05;;;;;;;25.56;50.31;101425.81;5080471;28;20032;-73
2022/07/21 10:40:53;;;;;;;8.07;6.05;;;;;;;25.60;49.05;101421.50;5099005;28;20043;-69
2022/07/21 10:43:24;;;;;;;11.52;6.65;;;;;;;25.60;49.00;101420.69;5080155;28;20131;-68
2022/07/21 10:45:51;;;;;;;6.97;6.28;;;;;;;25.63;48.85;101415.56;5098231;28;20548;-69
2022/07/21 10:48:41;;;;;;;9.65;6.97;;;;;;;25.73;48.87;101425.84;5097449;28;20122;-69
2022/07/21 10:51:14;;;;;;;9.27;7.15;;;;;;;25.76;48.74;101419.91;5098162;28;20165;-67
2022/07/21 10:53:40;;;;;;;7.55;6.00;;;;;;;25.85;48.31;101418.44;5097699;28;20086;-70
2022/07/21 10:56:07;;;;;;;8.15;6.53;;;;;;;25.84;47.88;101415.94;5098100;28;20034;-68
2022/07/21 10:58:39;;;;;;;8.77;7.10;;;;;;;25.88;47.55;101422.56;5097000;28;20085;-68
2022/07/21 11:01:14;;;;;;;9.25;7.18;;;;;;;25.91;47.51;101417.44;5095852;28;20099;-71
2022/07/21 11:03:45;;;;;;;7.45;6.65;;;;;;;25.78;47.61;101400.56;5078437;28;20073;-70
2022/07/21 11:06:18;;;;;;;9.25;7.22;;;;;;;25.97;47.38;101431.16;5098387;28;20040;-70
2022/07/21 11:08:58;;;;;;;10.75;6.90;;;;;;;25.94;47.37;101427.00;5079913;28;20039;-69
2022/07/21 11:11:29;;;;;;;8.00;6.20;;;;;;;25.92;47.75;101429.16;5098969;28;20040;-70
2022/07/21 11:14:01;;;;;;;19.85;8.48;;;;;;;26.01;47.79;101424.09;5098610;28;20036;-71
2022/07/21 11:16:55;;;;;;;7.50;6.70;;;;;;;26.06;49.04;101425.03;5080268;28;20036;-70
2022/07/21 11:19:39;;;;;;;16.55;7.53;;;;;;;26.09;47.88;101429.16;5096471;28;20517;-70
2022/07/21 11:22:23;;;;;;;10.40;7.60;;;;;;;26.11;46.57;101425.13;5096129;28;20044;-71
2022/07/21 11:25:02;;;;;;;9.35;7.93;;;;;;;26.14;44.78;101432.81;5059640;28;20039;-69
2022/07/21 11:27:32;;;;;;;9.20;8.30;;;;;;;26.20;44.32;101426.34;5094520;28;20058;-68
2022/07/21 11:30:00;;;;;;;8.65;7.75;;;;;;;26.22;45.29;101440.56;5094500;28;20092;-67